Πλησιέστερες Αναφορές METAR

 

LGTS - Thessaloniki/Makedonia-Elev 7m
Distance from station: Ν 13km
Ενημερώθηκε: 03/02/2023 22:20
Αίθριος
Αίθριος
 Ανεμος από varies
Ανεμος: varies 2 km/h
Θερμοκρασία: 7°C
Σημείο Δρόσου: -4°C
Υγρασία: 46%
Βαρόμετρο: 1021 hPa
Συνθήκες: Αίθριος
Visibility: greater than 10 km
2023/02/03 20:20 LGTS 032020Z VRB01KT CAVOK 07/M04 Q1021 NOSIG
LGAV - Athens/Elef. Venizelos-Elev 94m
Distance from station: ΝΝΑ 312km
Ενημερώθηκε: 03/02/2023 22:50
Few Clouds
Few Clouds
 Ανεμος από Α
Ανεμος: Α 7 km/h
Θερμοκρασία: 4°C
Wind Chill: 2°C
Σημείο Δρόσου: -2°C
Υγρασία: 65%
Βαρόμετρο: 1022 hPa
Clouds: Few Clouds
Visibility: 10 km
Cloud details: Few Clouds 914 m
2023/02/03 20:50 LGAV 032050Z 09004KT 010V150 9999 FEW030 04/M02 Q1022 NOSIG
 
LGAL - Alexandroupolis-Elev 3m
Distance from station: Α 251km
Ενημερώθηκε: 03/02/2023 22:20
Few Clouds
Few Clouds
 Ανεμος από calm
Ανεμος: Απνοια
Θερμοκρασία: 3°C
Σημείο Δρόσου: 1°C
Υγρασία: 87%
Βαρόμετρο: 1019 hPa
Clouds: Few Clouds
Visibility: 10 km
Cloud details: Few Clouds 762 m
2023/02/03 20:20 LGAL 032020Z 00000KT 9999 FEW025 03/01 Q1019
LGKV - Kavala/Crysoupolis-Elev 5m
Distance from station: ΑΒΑ 144km
Ενημερώθηκε: 03/02/2023 21:20
Μη Ενημερωμένο!
Few Clouds
Few Clouds
 Ανεμος από calm
Ανεμος: Απνοια
Θερμοκρασία: 4°C
Σημείο Δρόσου: 0°C
Υγρασία: 75%
Βαρόμετρο: 1019 hPa
Clouds: Few Clouds
Visibility: 10 km
Cloud details: Few Clouds 762 m
2023/02/03 19:20 LGKV 031920Z 00000KT 9999 FEW025 04/M00 Q1019
 
LGSK - Skiathos Island-Elev 15m
Distance from station: ΝΝΑ 168km
Ενημερώθηκε: 03/02/2023 17:50
Μη Ενημερωμένο!
Few Clouds
Few Clouds
 Ανεμος από ΒΒΔ
Ανεμος: ΒΒΔ 7 km/h
Θερμοκρασία: 10°C
Wind Chill: 9°C
Σημείο Δρόσου: 0°C
Υγρασία: 50%
Βαρόμετρο: 1021 hPa
Clouds: Few Clouds
Visibility: 10 km
Cloud details: Few Clouds 549 m
2023/02/03 15:50 LGSK 031550Z 33004KT 9999 FEW018 10/00 Q1021
LGLM - Limnos Island-Elev 5m
Distance from station: ΑΝΑ 210km
Ενημερώθηκε: 03/02/2023 21:50
Few Clouds
Few Clouds
 Ανεμος από calm
Ανεμος: Απνοια
Θερμοκρασία: 3°C
Σημείο Δρόσου: 0°C
Υγρασία: 81%
Βαρόμετρο: 1020 hPa
Clouds: Few Clouds
Visibility: 10 km
Cloud details: Few Clouds 914 m
2023/02/03 19:50 LGLM 031950Z 00000KT 9999 FEW030 03/M00 Q1020
 
LGMT - Mitilini Island-Elev 17m
Distance from station: ΑΝΑ 358km
Ενημερώθηκε: 03/02/2023 22:20
Few Clouds
Few Clouds
 Ανεμος από Δ
Ανεμος: Δ 11 km/h
Θερμοκρασία: 6°C
Wind Chill: 4°C
Σημείο Δρόσου: 1°C
Υγρασία: 71%
Βαρόμετρο: 1022 hPa
Clouds: Few Clouds
Visibility: 10 km
Cloud details: Few Clouds 762 m
2023/02/03 20:20 LGMT 032020Z 26006KT 9999 FEW025 06/01 Q1022
LGSY - Skiros Island-Elev 15m
Distance from station: ΝΑ 227km
Ενημερώθηκε: 03/02/2023 19:50
Μη Ενημερωμένο!
Few Clouds
Few Clouds
 Ανεμος από varies
Ανεμος: varies 6 km/h
Θερμοκρασία: 5°C
Σημείο Δρόσου: 2°C
Υγρασία: 81%
Βαρόμετρο: 1023 hPa
Clouds: Few Clouds
Visibility: 10 km
Cloud details: Few Clouds 762 m
2023/02/03 17:50 LGSY 031750Z VRB03KT 9999 FEW025 05/02 Q1023 BLU
 
LGKZ - Kozani-Elev 628m
Distance from station: ΔΝΔ 102km
Ενημερώθηκε: 03/02/2023 22:20

 Ανεμος από ΒΒΔ
Ανεμος: ΒΒΔ 7 km/h
Θερμοκρασία: -1°C
Wind Chill: -4°C
Σημείο Δρόσου: -7°C
Υγρασία: 64%
Βαρόμετρο: 1020 hPa
2023/02/03 20:20 LGKZ 032020Z AUTO 34004KT //// // ////// M01/M07 Q1020 RE//
LGIO - Ioannina-Elev 476m
Distance from station: ΔΝΔ 209km
Ενημερώθηκε: 03/02/2023 22:20

 Ανεμος από varies
Ανεμος: varies 2 km/h
Θερμοκρασία: -1°C
Σημείο Δρόσου: -3°C
Υγρασία: 86%
Βαρόμετρο: 1022 hPa
2023/02/03 20:20 LGIO 032020Z AUTO VRB01KT //// // ////// M01/M03 Q1022 RE//
 
LGZA - Zakinthos-Elev 3m
Distance from station: ΝΝΔ 367km
Ενημερώθηκε: 03/02/2023 19:50
Μη Ενημερωμένο!
Few Clouds
Few Clouds
 Ανεμος από varies
Ανεμος: varies 6 km/h
Θερμοκρασία: 9°C
Σημείο Δρόσου: 6°C
Υγρασία: 82%
Βαρόμετρο: 1023 hPa
Clouds: Few Clouds
Visibility: 10 km
Cloud details: Few Clouds 610 m
2023/02/03 17:50 LGZA 031750Z VRB03KT 9999 FEW020 09/06 Q1023
LGKR - Corfu Island-Elev 2m
Distance from station: ΔΝΔ 282km
Ενημερώθηκε: 03/02/2023 22:20
Αίθριος
Αίθριος
 Ανεμος από ΔΝΔ
Ανεμος: ΔΝΔ 11 km/h
Θερμοκρασία: 9°C
Wind Chill: 7°C
Σημείο Δρόσου: 0°C
Υγρασία: 54%
Βαρόμετρο: 1022 hPa
Συνθήκες: Αίθριος
Visibility: greater than 10 km
2023/02/03 20:20 LGKR 032020Z 24006KT CAVOK 09/M00 Q1022 NOSIG
 
LGSO - Syros Island-Elev 72m
Distance from station: ΝΝΑ 397km
Ενημερώθηκε: 03/02/2023 22:20

 Ανεμος από ΔΒΔ
Ανεμος: ΔΒΔ 17 km/h
Θερμοκρασία: 9°C
Wind Chill: 7°C
Σημείο Δρόσου: 2°C
Υγρασία: 62%
Βαρόμετρο: 1022 hPa
2023/02/03 20:20 LGSO 032020Z AUTO 30009KT //// // ////// 09/02 Q1022 RE//
LGMK - Mikonos Island-Elev 123m
Distance from station: ΝΝΑ 412km
Ενημερώθηκε: 03/02/2023 18:50
Μη Ενημερωμένο!
Μερικώς νεφελώδης
Μερικώς νεφελώδης
 Ανεμος από Β
Ανεμος: Β 26 km/h
Θερμοκρασία: 9°C
Wind Chill: 6°C
Σημείο Δρόσου: 2°C
Υγρασία: 62%
Βαρόμετρο: 1021 hPa
Clouds: Μερικώς νεφελώδης
Visibility: 10 km
Cloud details: Μερικώς νεφελώδης 610 m
2023/02/03 16:50 LGMK 031650Z 36014KT 9999 SCT020 09/02 Q1021
 
LGSR - Santorini Island-Elev 40m
Distance from station: ΝΝΑ 520km
Ενημερώθηκε: 03/02/2023 22:20
Μερικώς νεφελώδης
Μερικώς νεφελώδης
 Ανεμος από Β
Ανεμος: Β 22 km/h
Θερμοκρασία: 10°C
Wind Chill: 7°C
Σημείο Δρόσου: 3°C
Υγρασία: 62%
Βαρόμετρο: 1021 hPa
Clouds: Μερικώς νεφελώδης
Visibility: 10 km
Cloud details: Μερικώς νεφελώδης 762 m
2023/02/03 20:20 LGSR 032020Z 36012KT 9999 SCT025 10/03 Q1021
LGKL - Kalamata-Elev 8m
Distance from station: Ν 405km
Ενημερώθηκε: 03/02/2023 22:20
Αίθριος
Αίθριος
 Ανεμος από Β
Ανεμος: Β 9 km/h
Θερμοκρασία: 4°C
Wind Chill: 2°C
Σημείο Δρόσου: 2°C
Υγρασία: 87%
Βαρόμετρο: 1023 hPa
Συνθήκες: Αίθριος
Visibility: greater than 10 km
2023/02/03 20:20 LGKL 032020Z 35005KT CAVOK 04/02 Q1023
 
LGIR - Iraklion/Crete-Elev 5m
Distance from station: ΝΝΑ 622km
Ενημερώθηκε: 03/02/2023 22:50
Μερικώς νεφελώδης
Μερικώς νεφελώδης
 Ανεμος από Β
Ανεμος: Β 22 km/h
Θερμοκρασία: 11°C
Σημείο Δρόσου: 7°C
Υγρασία: 77%
Βαρόμετρο: 1022 hPa
Clouds: Μερικώς νεφελώδης
Visibility: 10 km
Cloud details: Few Clouds 488 m
Μερικώς νεφελώδης 762 m
2023/02/03 20:50 LGIR 032050Z 35012KT 9999 FEW016 SCT025 11/07 Q1022 NOSIG
LGRP - Rhodes-Elev 5m
Distance from station: ΝΑ 649km
Ενημερώθηκε: 03/02/2023 22:50
Μερικώς νεφελώδης
Μερικώς νεφελώδης
 Ανεμος από ΒΔ
Ανεμος: ΒΔ 22 km/h
Θερμοκρασία: 11°C
Σημείο Δρόσου: 6°C
Υγρασία: 72%
Βαρόμετρο: 1018 hPa
Clouds: Μερικώς νεφελώδης
Visibility: 10 km
Cloud details: Μερικώς νεφελώδης 549 m
2023/02/03 20:50 LGRP 032050Z 31012KT 9999 SCT018 11/06 Q1018 NOSIG
 
LWOH - Ohrid/FYROM-Elev 761m
Distance from station: ΔΒΔ 188km
Ενημερώθηκε: 03/02/2023 22:00
Αίθριος
Αίθριος
 Ανεμος από ΒΑ
Ανεμος: ΒΑ 4 km/h
Θερμοκρασία: -1°C
Σημείο Δρόσου: -4°C
Υγρασία: 80%
Βαρόμετρο: 1020 hPa
Συνθήκες: Αίθριος
Visibility: greater than 10 km
2023/02/03 20:00 LWOH 032000Z 04002KT CAVOK M01/M04 Q1020
LBSF - Sofia/Bulgaria-Elev 595m
Distance from station: Β 227km
Ενημερώθηκε: 03/02/2023 22:30
Συννεφιά
Συννεφιά
 Ανεμος από ΒΒΔ
Ανεμος: ΒΒΔ 11 km/h
Θερμοκρασία: 1°C
Wind Chill: -2°C
Σημείο Δρόσου: -6°C
Υγρασία: 60%
Βαρόμετρο: 1017 hPa
Clouds: Συννεφιά
Visibility: 10 km
Cloud details: Few Clouds 1798 m
Συννεφιά 2377 m
2023/02/03 20:30 LBSF 032030Z AUTO 33006KT 300V360 9999 FEW059/// OVC078/// 01/M06 Q1017 TEMPO -SN
Σημερινά ρεκόρ Μετεωρολογικού Σταθμού
Η Μέγιστη τιμή Βαρόμετρου των 910.9 hPa ξεπέρασε τη Μέγιστη Μηνιαία τιμή των 908.7 hPa που σημειώθηκε στις 01/02/2023 κατά 2.2 hPa
Η βροχόπτωση των 6.3 mm ξεπέρασε τη Μέγιστη Μηνιαία τιμή των 1.2 mm που σημειώθηκε στις 02/02/2023 κατά 5.1 mm